Time;durP1;ratioP1;P1;durP2;ratioP2;P2;SDS_P1;SDS_P2;PMS_P1;PMS_P2;Temp;Humidity;BMP_temperature;BMP_pressure;BME280_temperature;BME280_humidity;BME280_pressure;Samples;Min_cycle;Max_cycle;Signal;HPM_P1;HPM_P2
2022/09/28 00:02:05;;;;;;;;;;;;;;;;;;5026905;28;19980;-53
2022/09/28 00:04:33;;;;;;;;;;;;;;;;;;5012847;28;19959;-52
2022/09/28 00:07:01;;;;;;;;;;;;;;;;;;5013609;28;19929;-51
2022/09/28 00:09:27;;;;;;;;;;;;;;;;;;5013376;28;19973;-51
2022/09/28 00:11:55;;;;;;;;;;;;;;;;;;5013405;28;19996;-54
2022/09/28 00:14:22;;;;;;;;;;;;;;;;;;5013830;28;20389;-51
2022/09/28 00:16:49;;;;;;;;;;;;;;;;;;5013476;28;19926;-51
2022/09/28 00:19:15;;;;;;;;;;;;;;;;;;5013421;28;20403;-56
2022/09/28 00:21:42;;;;;;;;;;;;;;;;;;5013186;28;20386;-50
2022/09/28 00:24:13;;;;;;;;;;;;;;;;;;5013367;28;19925;-52
2022/09/28 00:26:42;;;;;;;;;;;;;;;;;;5013411;28;20364;-50
2022/09/28 00:29:14;;;;;;;;;;;;;;;;;;5013102;28;19926;-50
2022/09/28 00:31:41;;;;;;;;;;;;;;;;;;5013741;28;19931;-49
2022/09/28 00:34:07;;;;;;;;;;;;;;;;;;5013172;28;19979;-54
2022/09/28 00:36:34;;;;;;;;;;;;;;;;;;5012920;28;19933;-53
2022/09/28 00:39:05;;;;;;;;;;;;;;;;;;5013131;28;19979;-54
2022/09/28 00:41:33;;;;;;;;;;;;;;;;;;5012833;28;19925;-51
2022/09/28 00:44:18;;;;;;;;;;;;;;;;;;5012921;28;19936;-51
2022/09/28 00:46:45;;;;;;;;;;;;;;;;;;5012735;28;19926;-52
2022/09/28 00:49:14;;;;;;;;;;;;;;;;;;5012400;28;20396;-53
2022/09/28 00:51:42;;;;;;;;;;;;;;;;;;5012711;28;19972;-51
2022/09/28 00:54:09;;;;;;;;;;;;;;;;;;5012568;28;19979;-53
2022/09/28 00:56:38;;;;;;;;;;;;;;;;;;5012753;28;19925;-50
2022/09/28 00:59:05;;;;;;;;;;;;;;;;;;5012577;28;20344;-52
2022/09/28 01:01:31;;;;;;;;;;;;;;;;;;5014106;28;19926;-52
2022/09/28 01:03:58;;;;;;;;;;;;;;;;;;5032368;28;19929;-51
2022/09/28 01:06:27;;;;;;;;;;;;;;;;;;5032340;28;19925;-53
2022/09/28 01:08:55;;;;;;;;;;;;;;;;;;5031972;28;19925;-50
2022/09/28 01:11:22;;;;;;;;;;;;;;;;;;5032190;28;20293;-51
2022/09/28 01:13:51;;;;;;;;;;;;;;;;;;5032280;28;19933;-51
2022/09/28 01:16:20;;;;;;;;;;;;;;;;;;5032225;28;19925;-54
2022/09/28 01:18:53;;;;;;;;;;;;;;;;;;5031975;28;19929;-54
2022/09/28 01:21:20;;;;;;;;;;;;;;;;;;5031970;28;19937;-51
2022/09/28 01:23:55;;;;;;;;;;;;;;;;;;5032007;28;20370;-51
2022/09/28 01:26:40;;;;;;;;;;;;;;;;;;5032105;28;19925;-50
2022/09/28 01:29:13;;;;;;;;;;;;;;;;;;5032202;28;19979;-51
2022/09/28 01:31:41;;;;;;;;;;;;;;;;;;5032150;28;20162;-50
2022/09/28 01:34:11;;;;;;;;;;;;;;;;;;5031996;28;20004;-53
2022/09/28 01:36:40;;;;;;;;;;;;;;;;;;5032230;28;19925;-50
2022/09/28 01:39:09;;;;;;;;;;;;;;;;;;5032260;28;19925;-51
2022/09/28 01:41:39;;;;;;;;;;;;;;;;;;5031773;28;19971;-50
2022/09/28 01:44:08;;;;;;;;;;;;;;;;;;5031878;28;19979;-54
2022/09/28 01:46:37;;;;;;;;;;;;;;;;;;5031820;28;20494;-54
2022/09/28 01:49:06;;;;;;;;;;;;;;;;;;5031745;28;19932;-51
2022/09/28 01:51:35;;;;;;;;;;;;;;;;;;5031819;28;19987;-50
2022/09/28 01:54:06;;;;;;;;;;;;;;;;;;5031876;28;20385;-53
2022/09/28 01:56:36;;;;;;;;;;;;;;;;;;5032153;28;19925;-53
2022/09/28 01:59:05;;;;;;;;;;;;;;;;;;5031507;28;20394;-53
2022/09/28 02:01:34;;;;;;;;;;;;;;;;;;5033677;28;19965;-51
2022/09/28 02:04:06;;;;;;;;;;;;;;;;;;5016008;28;19938;-52
2022/09/28 02:06:37;;;;;;;;;;;;;;;;;;5015777;28;19980;-54
2022/09/28 02:09:08;;;;;;;;;;;;;;;;;;5015980;28;20290;-52
2022/09/28 02:11:36;;;;;;;;;;;;;;;;;;5015616;28;19933;-55
2022/09/28 02:14:04;;;;;;;;;;;;;;;;;;5015584;28;19925;-50
2022/09/28 02:16:34;;;;;;;;;;;;;;;;;;5015467;28;19984;-54
2022/09/28 02:19:03;;;;;;;;;;;;;;;;;;5015812;28;19933;-50
2022/09/28 02:21:32;;;;;;;;;;;;;;;;;;5015211;28;19925;-53
2022/09/28 02:24:01;;;;;;;;;;;;;;;;;;5015314;28;19925;-50
2022/09/28 02:26:30;;;;;;;;;;;;;;;;;;5015565;28;19933;-52
2022/09/28 02:28:58;;;;;;;;;;;;;;;;;;5015278;28;19980;-51
2022/09/28 02:31:25;;;;;;;;;;;;;;;;;;5015302;28;19926;-51
2022/09/28 02:33:53;;;;;;;;;;;;;;;;;;5015428;28;20386;-51
2022/09/28 02:36:21;;;;;;;;;;;;;;;;;;5015256;28;19972;-51
2022/09/28 02:38:48;;;;;;;;;;;;;;;;;;5015073;28;19938;-55
2022/09/28 02:41:20;;;;;;;;;;;;;;;;;;5015159;28;19987;-53
2022/09/28 02:43:53;;;;;;;;;;;;;;;;;;5015043;28;19980;-54
2022/09/28 02:46:27;;;;;;;;;;;;;;;;;;5015258;28;19988;-53
2022/09/28 02:48:56;;;;;;;;;;;;;;;;;;5014831;28;19976;-52
2022/09/28 02:51:30;;;;;;;;;;;;;;;;;;5014908;28;20357;-54
2022/09/28 02:54:03;;;;;;;;;;;;;;;;;;5015137;28;19925;-54
2022/09/28 02:56:35;;;;;;;;;;;;;;;;;;5014809;28;19987;-53
2022/09/28 02:59:07;;;;;;;;;;;;;;;;;;5014780;28;19926;-53
2022/09/28 03:01:36;;;;;;;;;;;;;;;;;;5016588;28;19926;-52
2022/09/28 03:04:07;;;;;;;;;;;;;;;;;;5034531;28;19932;-53
2022/09/28 03:06:39;;;;;;;;;;;;;;;;;;5034535;28;20286;-53
2022/09/28 03:09:07;;;;;;;;;;;;;;;;;;5034569;28;19929;-53
2022/09/28 03:11:36;;;;;;;;;;;;;;;;;;5034132;28;19925;-53
2022/09/28 03:14:03;;;;;;;;;;;;;;;;;;5034154;28;19929;-51
2022/09/28 03:16:30;;;;;;;;;;;;;;;;;;5034546;28;19929;-50
2022/09/28 03:18:57;;;;;;;;;;;;;;;;;;5034599;28;20294;-52
2022/09/28 03:21:24;;;;;;;;;;;;;;;;;;5034262;28;20306;-49
2022/09/28 03:23:51;;;;;;;;;;;;;;;;;;5032932;28;19940;-53
2022/09/28 03:26:18;;;;;;;;;;;;;;;;;;5033016;28;19979;-50
2022/09/28 03:28:45;;;;;;;;;;;;;;;;;;5033243;28;20344;-54
2022/09/28 03:31:11;;;;;;;;;;;;;;;;;;5033457;28;19929;-51
2022/09/28 03:33:38;;;;;;;;;;;;;;;;;;5033843;28;19971;-56
2022/09/28 03:36:07;;;;;;;;;;;;;;;;;;5033779;28;19925;-52
2022/09/28 03:38:34;;;;;;;;;;;;;;;;;;5034017;28;19926;-50
2022/09/28 03:41:01;;;;;;;;;;;;;;;;;;5033581;28;19979;-51
2022/09/28 03:43:30;;;;;;;;;;;;;;;;;;5033695;28;19933;-52
2022/09/28 03:45:57;;;;;;;;;;;;;;;;;;5033745;28;20435;-56
2022/09/28 03:48:24;;;;;;;;;;;;;;;;;;5033655;28;20345;-54
2022/09/28 03:50:54;;;;;;;;;;;;;;;;;;5033568;28;20310;-56
2022/09/28 03:53:20;;;;;;;;;;;;;;;;;;5033565;28;20448;-52
2022/09/28 03:55:47;;;;;;;;;;;;;;;;;;5033473;28;19929;-52
2022/09/28 03:58:15;;;;;;;;;;;;;;;;;;5033371;28;19924;-51
2022/09/28 04:00:42;;;;;;;;;;;;;;;;;;5033349;28;19929;-53
2022/09/28 04:03:08;;;;;;;;;;;;;;;;;;5018699;28;19925;-53
2022/09/28 04:05:35;;;;;;;;;;;;;;;;;;5013666;28;19980;-51
2022/09/28 04:08:01;;;;;;;;;;;;;;;;;;5013493;28;19925;-51
2022/09/28 04:10:28;;;;;;;;;;;;;;;;;;5013500;28;19929;-53
2022/09/28 04:12:55;;;;;;;;;;;;;;;;;;5013442;28;19926;-55
2022/09/28 04:15:23;;;;;;;;;;;;;;;;;;5013432;28;19945;-53
2022/09/28 04:17:50;;;;;;;;;;;;;;;;;;5013318;28;19944;-54
2022/09/28 04:20:17;;;;;;;;;;;;;;;;;;5013200;28;19926;-55
2022/09/28 04:22:43;;;;;;;;;;;;;;;;;;5012568;28;20306;-54
2022/09/28 04:25:10;;;;;;;;;;;;;;;;;;5013317;28;19925;-50
2022/09/28 04:30:20;;;;;;;;;;;;;;;;;;5013095;28;20425;-53
2022/09/28 04:32:49;;;;;;;;;;;;;;;;;;5013728;28;20343;-57
2022/09/28 04:35:15;;;;;;;;;;;;;;;;;;5013702;28;19929;-55
2022/09/28 04:37:42;;;;;;;;;;;;;;;;;;5013336;28;19933;-58
2022/09/28 04:40:09;;;;;;;;;;;;;;;;;;5013567;28;19932;-56
2022/09/28 04:42:35;;;;;;;;;;;;;;;;;;5013321;28;20408;-54
2022/09/28 04:45:03;;;;;;;;;;;;;;;;;;5013204;28;20303;-53
2022/09/28 04:47:30;;;;;;;;;;;;;;;;;;5013292;28;20402;-51
2022/09/28 04:49:58;;;;;;;;;;;;;;;;;;5013175;28;19926;-52
2022/09/28 04:52:25;;;;;;;;;;;;;;;;;;5049899;22;19931;-51
2022/09/28 04:54:52;;;;;;;;;;;;;;;;;;5052351;28;20309;-49
2022/09/28 04:57:18;;;;;;;;;;;;;;;;;;5052382;28;19928;-49
2022/09/28 04:59:45;;;;;;;;;;;;;;;;;;5051912;28;19929;-48
2022/09/28 05:02:13;;;;;;;;;;;;;;;;;;5045163;28;19925;-54
2022/09/28 05:04:40;;;;;;;;;;;;;;;;;;5031932;28;19936;-48
2022/09/28 05:07:08;;;;;;;;;;;;;;;;;;5033016;28;19926;-47
2022/09/28 05:09:35;;;;;;;;;;;;;;;;;;5032391;28;19933;-47
2022/09/28 05:12:01;;;;;;;;;;;;;;;;;;5032232;28;19929;-47
2022/09/28 05:14:28;;;;;;;;;;;;;;;;;;5032517;28;19925;-51
2022/09/28 05:16:54;;;;;;;;;;;;;;;;;;5031659;28;19925;-49
2022/09/28 05:19:21;;;;;;;;;;;;;;;;;;5031569;28;19971;-48
2022/09/28 05:21:48;;;;;;;;;;;;;;;;;;5031692;28;19925;-48
2022/09/28 05:24:16;;;;;;;;;;;;;;;;;;5031771;28;19971;-52
2022/09/28 05:26:42;;;;;;;;;;;;;;;;;;5031941;28;19925;-50
2022/09/28 05:29:09;;;;;;;;;;;;;;;;;;5031840;28;19935;-49
2022/09/28 05:31:36;;;;;;;;;;;;;;;;;;5031778;28;20077;-49
2022/09/28 05:34:02;;;;;;;;;;;;;;;;;;5033489;28;19929;-48
2022/09/28 05:36:31;;;;;;;;;;;;;;;;;;5036065;28;20006;-52
2022/09/28 05:38:58;;;;;;;;;;;;;;;;;;5035742;28;19925;-49
2022/09/28 05:41:26;;;;;;;;;;;;;;;;;;5036124;28;19948;-48
2022/09/28 05:43:53;;;;;;;;;;;;;;;;;;5035468;28;19925;-51
2022/09/28 05:46:21;;;;;;;;;;;;;;;;;;5040957;28;19928;-48
2022/09/28 05:48:48;;;;;;;;;;;;;;;;;;5038407;28;20301;-52
2022/09/28 05:51:15;;;;;;;;;;;;;;;;;;5035523;28;19931;-49
2022/09/28 05:53:41;;;;;;;;;;;;;;;;;;5035760;28;20349;-52
2022/09/28 05:56:08;;;;;;;;;;;;;;;;;;5035812;28;19932;-48
2022/09/28 05:58:36;;;;;;;;;;;;;;;;;;5035388;28;19925;-48
2022/09/28 06:01:02;;;;;;;;;;;;;;;;;;5035726;28;19925;-52
2022/09/28 06:03:29;;;;;;;;;;;;;;;;;;5052975;28;19928;-51
2022/09/28 06:05:55;;;;;;;;;;;;;;;;;;5055450;28;19932;-50
2022/09/28 06:08:22;;;;;;;;;;;;;;;;;;5054824;28;19929;-48
2022/09/28 06:10:48;;;;;;;;;;;;;;;;;;5054867;28;19925;-47
2022/09/28 06:13:15;;;;;;;;;;;;;;;;;;5055239;28;19925;-47
2022/09/28 06:15:43;;;;;;;;;;;;;;;;;;5055303;28;19970;-47
2022/09/28 06:18:12;;;;;;;;;;;;;;;;;;5055327;28;19984;-47
2022/09/28 06:20:40;;;;;;;;;;;;;;;;;;5055401;28;20424;-48
2022/09/28 06:23:07;;;;;;;;;;;;;;;;;;5055336;28;19932;-49
2022/09/28 06:25:33;;;;;;;;;;;;;;;;;;5054960;28;19931;-50
2022/09/28 06:28:00;;;;;;;;;;;;;;;;;;5055411;28;20078;-47
2022/09/28 06:30:28;;;;;;;;;;;;;;;;;;5054520;28;19929;-48
2022/09/28 06:32:56;;;;;;;;;;;;;;;;;;5055479;28;20436;-48
2022/09/28 06:35:24;;;;;;;;;;;;;;;;;;5055101;28;19932;-52
2022/09/28 06:37:50;;;;;;;;;;;;;;;;;;5055470;28;19952;-47
2022/09/28 06:40:17;;;;;;;;;;;;;;;;;;5054612;28;19987;-51
2022/09/28 06:42:44;;;;;;;;;;;;;;;;;;5055104;28;19925;-50
2022/09/28 06:45:10;;;;;;;;;;;;;;;;;;5054191;28;19928;-52
2022/09/28 06:47:37;;;;;;;;;;;;;;;;;;5055091;28;19957;-52
2022/09/28 06:50:13;;;;;;;;;;;;;;;;;;5054649;28;19925;-47
2022/09/28 06:52:39;;;;;;;;;;;;;;;;;;5055107;28;19929;-50
2022/09/28 06:55:06;;;;;;;;;;;;;;;;;;5054614;28;20343;-50
2022/09/28 06:57:33;;;;;;;;;;;;;;;;;;5054887;28;19925;-48
2022/09/28 06:59:59;;;;;;;;;;;;;;;;;;5054849;28;20085;-47
2022/09/28 07:02:26;;;;;;;;;;;;;;;;;;5045554;28;19980;-51
2022/09/28 07:04:52;;;;;;;;;;;;;;;;;;5034504;28;19925;-48
2022/09/28 07:07:20;;;;;;;;;;;;;;;;;;5034451;28;19925;-46
2022/09/28 07:09:46;;;;;;;;;;;;;;;;;;5034115;28;19932;-51
2022/09/28 07:12:13;;;;;;;;;;;;;;;;;;5036476;28;19978;-52
2022/09/28 07:14:40;;;;;;;;;;;;;;;;;;5047842;28;19994;-50
2022/09/28 07:17:07;;;;;;;;;;;;;;;;;;5052443;28;20047;-53
2022/09/28 07:19:35;;;;;;;;;;;;;;;;;;5052018;28;19952;-50
2022/09/28 07:22:01;;;;;;;;;;;;;;;;;;5052341;28;20370;-51
2022/09/28 07:24:29;;;;;;;;;;;;;;;;;;5052083;28;19925;-50
2022/09/28 07:26:56;;;;;;;;;;;;;;;;;;5052220;28;19948;-50
2022/09/28 07:29:22;;;;;;;;;;;;;;;;;;5051671;28;19993;-54
2022/09/28 07:31:49;;;;;;;;;;;;;;;;;;5051481;28;20324;-53
2022/09/28 07:34:17;;;;;;;;;;;;;;;;;;5052043;28;19925;-48
2022/09/28 07:36:43;;;;;;;;;;;;;;;;;;5051720;28;19978;-51
2022/09/28 07:39:11;;;;;;;;;;;;;;;;;;5051803;28;20348;-48
2022/09/28 07:41:38;;;;;;;;;;;;;;;;;;5051844;28;19971;-53
2022/09/28 07:44:05;;;;;;;;;;;;;;;;;;5051599;28;19936;-48
2022/09/28 07:46:32;;;;;;;;;;;;;;;;;;5051924;28;20318;-48
2022/09/28 07:48:59;;;;;;;;;;;;;;;;;;5051522;28;19978;-47
2022/09/28 07:51:25;;;;;;;;;;;;;;;;;;5051437;28;19979;-50
2022/09/28 07:53:53;;;;;;;;;;;;;;;;;;5051852;28;19971;-51
2022/09/28 07:56:19;;;;;;;;;;;;;;;;;;5051335;28;20287;-54
2022/09/28 07:58:47;;;;;;;;;;;;;;;;;;5050827;28;19928;-51
2022/09/28 08:01:15;;;;;;;;;;;;;;;;;;5051412;28;19925;-53
2022/09/28 08:03:44;;;;;;;;;;;;;;;;;;5051532;28;19925;-50
2022/09/28 08:06:11;;;;;;;;;;;;;;;;;;5051304;28;19929;-49
2022/09/28 08:08:43;;;;;;;;;;;;;;;;;;5051706;28;19925;-48
2022/09/28 08:11:10;;;;;;;;;;;;;;;;;;5052312;28;19964;-49
2022/09/28 08:13:39;;;;;;;;;;;;;;;;;;5051942;28;19932;-51
2022/09/28 08:16:10;;;;;;;;;;;;;;;;;;5051675;28;19928;-50
2022/09/28 08:18:37;;;;;;;;;;;;;;;;;;5051761;28;20012;-51
2022/09/28 08:23:49;;;;;;;;;;;;;;;;;;5050819;28;19978;-51
2022/09/28 08:26:16;;;;;;;;;;;;;;;;;;5051802;28;20023;-52
2022/09/28 08:28:43;;;;;;;;;;;;;;;;;;5050803;28;19933;-50
2022/09/28 08:31:12;;;;;;;;;;;;;;;;;;5051380;28;19931;-50
2022/09/28 08:33:39;;;;;;;;;;;;;;;;;;5050538;28;19925;-48
2022/09/28 08:36:05;;;;;;;;;;;;;;;;;;5051151;28;20378;-52
2022/09/28 08:38:32;;;;;;;;;;;;;;;;;;5050817;28;19928;-57
2022/09/28 08:41:06;;;;;;;;;;;;;;;;;;5047543;28;19925;-48
2022/09/28 08:43:44;;;;;;;;;;;;;;;;;;5050666;28;19932;-50
2022/09/28 08:46:13;;;;;;;;;;;;;;;;;;5050717;28;19932;-48
2022/09/28 08:48:47;;;;;;;;;;;;;;;;;;5050764;28;20012;-47
2022/09/28 08:51:16;;;;;;;;;;;;;;;;;;5050312;28;19925;-48
2022/09/28 08:53:45;;;;;;;;;;;;;;;;;;5050970;28;19929;-48
2022/09/28 08:56:14;;;;;;;;;;;;;;;;;;5050548;28;19929;-47
2022/09/28 08:58:43;;;;;;;;;;;;;;;;;;5050485;28;19929;-51
2022/09/28 09:01:13;;;;;;;;;;;;;;;;;;5050467;28;19925;-47
2022/09/28 09:03:43;;;;;;;;;;;;;;;;;;5031296;28;19925;-50
2022/09/28 09:06:16;;;;;;;;;;;;;;;;;;5031234;28;19925;-50
2022/09/28 09:08:48;;;;;;;;;;;;;;;;;;5030611;28;19929;-50
2022/09/28 09:11:22;;;;;;;;;;;;;;;;;;5031000;28;19925;-53
2022/09/28 09:14:01;;;;;;;;;;;;;;;;;;5030379;28;19932;-54
2022/09/28 09:16:32;;;;;;;;;;;;;;;;;;5030357;28;19971;-50
2022/09/28 09:19:05;;;;;;;;;;;;;;;;;;5029535;28;20051;-49
2022/09/28 09:21:38;;;;;;;;;;;;;;;;;;5030490;28;19929;-51
2022/09/28 09:24:10;;;;;;;;;;;;;;;;;;5029999;28;19929;-54
2022/09/28 09:26:38;;;;;;;;;;;;;;;;;;5029905;28;19979;-53
2022/09/28 09:29:12;;;;;;;;;;;;;;;;;;5030169;28;19929;-48
2022/09/28 09:31:43;;;;;;;;;;;;;;;;;;5030444;28;19931;-50
2022/09/28 09:34:31;;;;;;;;;;;;;;;;;;5030719;28;19929;-51
2022/09/28 09:37:06;;;;;;;;;;;;;;;;;;5004326;28;19931;-48
2022/09/28 09:39:37;;;;;;;;;;;;;;;;;;5029682;28;19933;-48
2022/09/28 09:42:11;;;;;;;;;;;;;;;;;;5029855;28;19925;-51
2022/09/28 09:44:46;;;;;;;;;;;;;;;;;;5029994;28;20239;-51
2022/09/28 09:47:16;;;;;;;;;;;;;;;;;;5030112;28;19976;-48
2022/09/28 09:49:45;;;;;;;;;;;;;;;;;;5030281;28;19936;-51
2022/09/28 09:52:18;;;;;;;;;;;;;;;;;;5030245;28;19929;-52
2022/09/28 09:54:48;;;;;;;;;;;;;;;;;;5031074;28;20406;-54
2022/09/28 09:57:16;;;;;;;;;;;;;;;;;;5030657;28;19925;-48
2022/09/28 09:59:44;;;;;;;;;;;;;;;;;;5029962;28;20310;-52
2022/09/28 10:02:15;;;;;;;;;;;;;;;;;;5036263;28;19982;-62
2022/09/28 10:04:45;;;;;;;;;;;;;;;;;;5049967;28;19979;-52
2022/09/28 10:07:17;;;;;;;;;;;;;;;;;;5050220;28;20325;-49
2022/09/28 10:09:46;;;;;;;;;;;;;;;;;;5049951;28;20282;-57
2022/09/28 10:12:15;;;;;;;;;;;;;;;;;;5050317;28;20023;-51
2022/09/28 10:14:42;;;;;;;;;;;;;;;;;;5049821;28;20372;-48
2022/09/28 10:17:10;;;;;;;;;;;;;;;;;;5050161;28;20390;-49
2022/09/28 10:19:37;;;;;;;;;;;;;;;;;;5049294;28;19948;-52
2022/09/28 10:22:04;;;;;;;;;;;;;;;;;;5052457;28;19929;-54
2022/09/28 10:24:34;;;;;;;;;;;;;;;;;;5053363;28;19978;-60
2022/09/28 10:27:04;;;;;;;;;;;;;;;;;;5053413;28;19924;-52
2022/09/28 10:29:34;;;;;;;;;;;;;;;;;;5052993;28;20340;-52
2022/09/28 10:32:02;;;;;;;;;;;;;;;;;;5053292;28;19982;-54
2022/09/28 10:34:29;;;;;;;;;;;;;;;;;;5053266;28;19970;-51
2022/09/28 10:36:57;;;;;;;;;;;;;;;;;;5053593;28;19931;-54
2022/09/28 10:39:35;;;;;;;;;;;;;;;;;;5053205;28;19925;-53
2022/09/28 10:42:03;;;;;;;;;;;;;;;;;;5052540;28;19925;-52
2022/09/28 10:44:31;;;;;;;;;;;;;;;;;;5053036;28;20038;-49
2022/09/28 10:46:59;;;;;;;;;;;;;;;;;;5053272;28;20324;-50
2022/09/28 10:49:27;;;;;;;;;;;;;;;;;;5052555;28;20015;-51
2022/09/28 10:51:55;;;;;;;;;;;;;;;;;;5052954;28;19929;-49
2022/09/28 10:54:22;;;;;;;;;;;;;;;;;;5053037;28;20152;-49
2022/09/28 10:56:51;;;;;;;;;;;;;;;;;;5053190;28;19925;-52
2022/09/28 10:59:25;;;;;;;;;;;;;;;;;;5052620;28;19943;-53
2022/09/28 11:01:55;;;;;;;;;;;;;;;;;;5048749;28;19925;-50
2022/09/28 11:04:23;;;;;;;;;;;;;;;;;;5032855;28;20386;-50
2022/09/28 11:06:50;;;;;;;;;;;;;;;;;;5033136;28;19976;-52
2022/09/28 11:09:24;;;;;;;;;;;;;;;;;;5032623;28;19925;-49
2022/09/28 11:11:52;;;;;;;;;;;;;;;;;;5032750;28;20007;-49
2022/09/28 11:14:24;;;;;;;;;;;;;;;;;;5033072;28;20291;-51
2022/09/28 11:17:07;;;;;;;;;;;;;;;;;;5033595;28;19945;-48
2022/09/28 11:19:34;;;;;;;;;;;;;;;;;;5033156;28;19929;-52
2022/09/28 11:22:01;;;;;;;;;;;;;;;;;;5033256;28;19925;-49
2022/09/28 11:24:28;;;;;;;;;;;;;;;;;;5032988;28;19926;-51
2022/09/28 11:26:56;;;;;;;;;;;;;;;;;;5033455;28;20306;-52
2022/09/28 11:29:26;;;;;;;;;;;;;;;;;;5032590;28;19931;-53
2022/09/28 11:31:53;;;;;;;;;;;;;;;;;;5032787;28;20016;-50
2022/09/28 11:34:22;;;;;;;;;;;;;;;;;;5033038;28;19932;-50
2022/09/28 11:37:06;;;;;;;;;;;;;;;;;;5033613;28;20355;-51
2022/09/28 11:39:40;;;;;;;;;;;;;;;;;;5010844;28;20614;-52
2022/09/28 11:42:12;;;;;;;;;;;;;;;;;;5033034;28;20292;-50
2022/09/28 11:44:40;;;;;;;;;;;;;;;;;;5031856;28;19929;-50
2022/09/28 11:47:33;;;;;;;;;;;;;;;;;;5033045;28;19932;-49
2022/09/28 11:50:02;;;;;;;;;;;;;;;;;;5032388;28;19933;-53
2022/09/28 11:52:30;;;;;;;;;;;;;;;;;;5032298;28;20336;-49
2022/09/28 11:54:59;;;;;;;;;;;;;;;;;;5031858;28;19932;-51
2022/09/28 11:57:30;;;;;;;;;;;;;;;;;;5032195;28;20406;-54
2022/09/28 11:59:58;;;;;;;;;;;;;;;;;;5031422;28;19932;-52
2022/09/28 12:02:27;;;;;;;;;;;;;;;;;;5040716;28;20344;-49
2022/09/28 12:04:56;;;;;;;;;;;;;;;;;;5051418;28;19990;-52
2022/09/28 12:07:25;;;;;;;;;;;;;;;;;;5051288;28;19925;-49
2022/09/28 12:09:54;;;;;;;;;;;;;;;;;;5051165;28;19951;-51
2022/09/28 12:12:24;;;;;;;;;;;;;;;;;;5051938;28;19925;-49
2022/09/28 12:14:53;;;;;;;;;;;;;;;;;;5051196;28;20031;-49
2022/09/28 12:17:22;;;;;;;;;;;;;;;;;;5051635;28;20002;-48
2022/09/28 12:19:50;;;;;;;;;;;;;;;;;;5050944;28;19936;-50
2022/09/28 12:22:19;;;;;;;;;;;;;;;;;;5051727;28;19924;-51
2022/09/28 12:24:47;;;;;;;;;;;;;;;;;;5051084;28;19925;-47
2022/09/28 12:27:17;;;;;;;;;;;;;;;;;;5051719;28;19960;-49
2022/09/28 12:29:46;;;;;;;;;;;;;;;;;;5051078;28;19928;-50
2022/09/28 12:32:18;;;;;;;;;;;;;;;;;;5051143;28;20305;-54
2022/09/28 12:34:45;;;;;;;;;;;;;;;;;;5050820;28;20465;-51
2022/09/28 12:37:28;;;;;;;;;;;;;;;;;;5051342;28;20367;-48
2022/09/28 12:40:06;;;;;;;;;;;;;;;;;;5051098;28;19929;-48
2022/09/28 12:42:45;;;;;;;;;;;;;;;;;;5051089;28;19987;-51
2022/09/28 12:45:17;;;;;;;;;;;;;;;;;;5050466;28;19948;-52
2022/09/28 12:47:59;;;;;;;;;;;;;;;;;;5051298;28;19955;-50
2022/09/28 12:50:30;;;;;;;;;;;;;;;;;;5050676;28;19925;-48
2022/09/28 12:53:04;;;;;;;;;;;;;;;;;;5050898;28;19929;-51
2022/09/28 12:55:37;;;;;;;;;;;;;;;;;;5050837;28;19928;-49
2022/09/28 12:58:10;;;;;;;;;;;;;;;;;;5050442;28;20382;-48
2022/09/28 13:00:39;;;;;;;;;;;;;;;;;;5050810;28;19927;-50
2022/09/28 13:03:25;;;;;;;;;;;;;;;;;;5035990;28;19925;-52
2022/09/28 13:06:13;;;;;;;;;;;;;;;;;;5030657;28;19980;-52
2022/09/28 13:08:44;;;;;;;;;;;;;;;;;;5027289;28;19929;-49
2022/09/28 13:11:15;;;;;;;;;;;;;;;;;;5031176;28;19925;-52
2022/09/28 13:13:46;;;;;;;;;;;;;;;;;;5030942;28;19925;-48
2022/09/28 13:16:16;;;;;;;;;;;;;;;;;;5030990;28;19925;-48
2022/09/28 13:18:49;;;;;;;;;;;;;;;;;;5031302;28;20024;-55
2022/09/28 13:21:22;;;;;;;;;;;;;;;;;;5030790;28;20002;-52
2022/09/28 13:23:50;;;;;;;;;;;;;;;;;;5030886;28;20028;-55
2022/09/28 13:26:20;;;;;;;;;;;;;;;;;;5031147;28;19929;-50
2022/09/28 13:28:49;;;;;;;;;;;;;;;;;;5030987;28;20361;-56
2022/09/28 13:31:19;;;;;;;;;;;;;;;;;;5030633;28;19990;-49
2022/09/28 13:33:47;;;;;;;;;;;;;;;;;;5030782;28;19948;-49
2022/09/28 13:36:32;;;;;;;;;;;;;;;;;;5030682;28;19931;-48
2022/09/28 13:39:00;;;;;;;;;;;;;;;;;;5030509;28;19972;-50
2022/09/28 13:41:30;;;;;;;;;;;;;;;;;;5030550;28;19925;-50
2022/09/28 13:44:16;;;;;;;;;;;;;;;;;;5030540;28;19929;-48
2022/09/28 13:46:47;;;;;;;;;;;;;;;;;;5030679;28;19925;-48
2022/09/28 13:49:18;;;;;;;;;;;;;;;;;;5029998;28;19933;-53
2022/09/28 13:51:55;;;;;;;;;;;;;;;;;;5030549;28;19979;-48
2022/09/28 13:54:50;;;;;;;;;;;;;;;;;;5030993;28;19929;-52
2022/09/28 13:57:18;;;;;;;;;;;;;;;;;;5034690;28;19925;-51
2022/09/28 13:59:49;;;;;;;;;;;;;;;;;;5034236;28;19925;-53
2022/09/28 14:02:21;;;;;;;;;;;;;;;;;;5041219;28;20390;-55
2022/09/28 14:04:56;;;;;;;;;;;;;;;;;;5054104;28;19932;-46
2022/09/28 14:07:24;;;;;;;;;;;;;;;;;;5053840;28;19932;-50
2022/09/28 14:10:06;;;;;;;;;;;;;;;;;;5053806;28;20297;-52
2022/09/28 14:12:50;;;;;;;;;;;;;;;;;;5054250;28;19929;-53
2022/09/28 14:15:35;;;;;;;;;;;;;;;;;;5054022;28;19925;-54
2022/09/28 14:18:06;;;;;;;;;;;;;;;;;;5053831;28;19931;-48
2022/09/28 14:20:35;;;;;;;;;;;;;;;;;;5053429;28;19931;-48
2022/09/28 14:23:18;;;;;;;;;;;;;;;;;;5053795;28;20399;-50
2022/09/28 14:25:45;;;;;;;;;;;;;;;;;;5054027;28;19933;-48
2022/09/28 14:28:27;;;;;;;;;;;;;;;;;;5053862;28;19925;-49
2022/09/28 14:30:57;;;;;;;;;;;;;;;;;;5053793;28;19925;-52
2022/09/28 14:33:25;;;;;;;;;;;;;;;;;;5053676;28;19978;-55
2022/09/28 14:35:55;;;;;;;;;;;;;;;;;;5053299;28;19931;-50
2022/09/28 14:41:11;;;;;;;;;;;;;;;;;;5053942;28;20463;-48
2022/09/28 14:43:57;;;;;;;;;;;;;;;;;;5053538;28;19931;-50
2022/09/28 14:46:31;;;;;;;;;;;;;;;;;;5053247;28;19933;-50
2022/09/28 14:49:00;;;;;;;;;;;;;;;;;;5052702;28;19924;-50
2022/09/28 14:52:02;;;;;;;;;;;;;;;;;;5052811;28;20298;-51
2022/09/28 14:54:45;;;;;;;;;;;;;;;;;;5010621;28;19975;-49
2022/09/28 14:57:19;;;;;;;;;;;;;;;;;;5008998;28;20370;-49
2022/09/28 14:59:46;;;;;;;;;;;;;;;;;;5036312;28;19925;-50
2022/09/28 15:02:19;;;;;;;;;;;;;;;;;;5045762;28;20271;-54
2022/09/28 15:04:48;;;;;;;;;;;;;;;;;;5033291;28;20148;-49
2022/09/28 15:07:18;;;;;;;;;;;;;;;;;;5033074;28;19969;-50
2022/09/28 15:09:48;;;;;;;;;;;;;;;;;;5032616;28;19983;-50
2022/09/28 15:12:16;;;;;;;;;;;;;;;;;;5033351;28;19936;-53
2022/09/28 15:14:45;;;;;;;;;;;;;;;;;;5032893;28;20371;-52
2022/09/28 15:17:13;;;;;;;;;;;;;;;;;;5032455;28;19929;-53
2022/09/28 15:19:43;;;;;;;;;;;;;;;;;;5033088;28;19972;-50
2022/09/28 15:22:14;;;;;;;;;;;;;;;;;;5048740;28;20405;-51
2022/09/28 15:24:45;;;;;;;;;;;;;;;;;;5051373;28;19986;-52
2022/09/28 15:27:14;;;;;;;;;;;;;;;;;;5051435;28;19931;-52
2022/09/28 15:29:40;;;;;;;;;;;;;;;;;;5052569;28;19924;-49
2022/09/28 15:32:22;;;;;;;;;;;;;;;;;;5052450;28;20345;-50
2022/09/28 15:34:50;;;;;;;;;;;;;;;;;;5052314;28;19925;-51
2022/09/28 15:37:18;;;;;;;;;;;;;;;;;;5052771;28;19924;-49
2022/09/28 15:39:46;;;;;;;;;;;;;;;;;;5052295;28;20463;-55
2022/09/28 15:42:13;;;;;;;;;;;;;;;;;;5052455;28;19931;-48
2022/09/28 15:44:41;;;;;;;;;;;;;;;;;;5052469;28;19925;-51
2022/09/28 15:47:13;;;;;;;;;;;;;;;;;;5052444;28;19925;-50
2022/09/28 15:49:41;;;;;;;;;;;;;;;;;;5062163;22;19992;-59
2022/09/28 15:52:21;;;;;;;;;;;;;;;;;;5049790;28;20423;-59
2022/09/28 15:54:48;;;;;;;;;;;;;;;;;;5051658;28;19986;-59
2022/09/28 15:57:28;;;;;;;;;;;;;;;;;;5052141;28;20344;-60
2022/09/28 15:59:58;;;;;;;;;;;;;;;;;;5051904;28;19925;-57
2022/09/28 16:02:26;;;;;;;;;;;;;;;;;;5051726;28;19925;-58
2022/09/28 16:04:55;;;;;;;;;;;;;;;;;;5051983;28;20585;-60
2022/09/28 16:07:27;;;;;;;;;;;;;;;;;;5051831;28;19924;-59
2022/09/28 16:09:58;;;;;;;;;;;;;;;;;;5051875;28;19993;-57
2022/09/28 16:12:30;;;;;;;;;;;;;;;;;;5051797;28;20536;-58
2022/09/28 16:14:57;;;;;;;;;;;;;;;;;;5052282;28;19931;-59
2022/09/28 16:17:32;;;;;;;;;;;;;;;;;;5051476;28;19931;-56
2022/09/28 16:19:59;;;;;;;;;;;;;;;;;;5051053;28;19931;-59
2022/09/28 16:22:26;;;;;;;;;;;;;;;;;;5051925;28;19932;-58
2022/09/28 16:24:54;;;;;;;;;;;;;;;;;;5051327;28;19960;-59
2022/09/28 16:27:25;;;;;;;;;;;;;;;;;;5051793;28;19929;-57
2022/09/28 16:30:03;;;;;;;;;;;;;;;;;;5051175;28;19970;-62
2022/09/28 16:32:40;;;;;;;;;;;;;;;;;;5050790;28;20393;-59
2022/09/28 16:35:18;;;;;;;;;;;;;;;;;;5051828;28;20400;-57
2022/09/28 16:37:46;;;;;;;;;;;;;;;;;;5051149;28;19968;-58
2022/09/28 16:40:13;;;;;;;;;;;;;;;;;;5050912;28;19944;-59
2022/09/28 16:42:40;;;;;;;;;;;;;;;;;;5051239;28;19924;-57
2022/09/28 16:45:07;;;;;;;;;;;;;;;;;;5050979;28;19925;-59
2022/09/28 16:47:34;;;;;;;;;;;;;;;;;;5050946;28;19929;-60
2022/09/28 16:50:05;;;;;;;;;;;;;;;;;;5051055;28;19983;-60
2022/09/28 16:55:15;;;;;;;;;;;;;;;;;;5051344;28;19932;-60
2022/09/28 16:57:42;;;;;;;;;;;;;;;;;;5050988;28;19925;-60
2022/09/28 17:00:11;;;;;;;;;;;;;;;;;;5050889;28;19978;-60
2022/09/28 17:02:38;;;;;;;;;;;;;;;;;;5040034;28;19971;-59
2022/09/28 17:05:06;;;;;;;;;;;;;;;;;;5031350;28;19925;-57
2022/09/28 17:07:33;;;;;;;;;;;;;;;;;;5030646;28;19929;-59
2022/09/28 17:09:59;;;;;;;;;;;;;;;;;;5030931;28;19925;-59
2022/09/28 17:12:27;;;;;;;;;;;;;;;;;;5030833;28;20345;-59
2022/09/28 17:14:54;;;;;;;;;;;;;;;;;;5030863;28;19929;-57